Norman, Minnesota
Current Conditions -  °F | °C
As of 5:13 PM on Monday 22 Dec 2014 (Local Time) from KMZH Reporting Station
Light Rain Light Rain  
Wind Chill: 34°   Ceiling: 500
Heat Index: 34°   Visibility: 3mi
Dew Point: 32°   Wind: 3mph
Humidity: 93%   Direction: 90°E
Pressure: 29.66"   Gusts: NA
Location:  46.2985°N, 92.833°W
Report Text: KMZH 222313Z AUTO 09003KT 3SM -RA OVC005 01/00 A2966 RMK AO2
Loading
Personal Weather Stations






























Interactive Weather Map New forecast layout! Learn more

10-Day Weather Forecast

Advertisements
Track Severe Weather on mobile